BAW491 LXGB-EGLL
Flight info
| Callsign | BAW491 |
|---|---|
| Flight time | 2h 18m |
| Altitude | 36000 |
| Route | XAVIR PIMOS N869 BLN N865 VTB N867 NENEM DCT PEXOD DCT YURZI UL14 TEPRA UN867 MOKOR UP87 ROXOG ROXO1H |
| Aircraft | A320/M-SDE3FGHIRWY/LB1 |
Departure
| Time | 2026-05-04 09:18 |
|---|---|
| Airport | Gibraltar Airport (LXGB) |
Arrival
| Time | 2026-05-04 11:36 |
|---|---|
| Airport | London Heathrow Airport (EGLL) |
| Time | Latitude | Longitude | Altitude | Speed | Heading |
|---|---|---|---|---|---|
| 2026-05-04 09:03 | 36.15307 | -5.34667 | 17 ft | 0 kts | 0° |
| 2026-05-04 09:09 | 36.15285 | -5.34667 | 18 ft | 4 kts | 359° |
| 2026-05-04 09:09 | 36.15258 | -5.34666 | 21 ft | 4 kts | 4° |
| 2026-05-04 09:09 | 36.15234 | -5.34673 | 18 ft | 4 kts | 53° |
| 2026-05-04 09:10 | 36.15230 | -5.34681 | 18 ft | 1 kts | 91° |
| 2026-05-04 09:14 | 36.15232 | -5.34570 | 18 ft | 11 kts | 88° |
| 2026-05-04 09:14 | 36.15235 | -5.34470 | 17 ft | 13 kts | 87° |
| 2026-05-04 09:14 | 36.15240 | -5.34345 | 14 ft | 16 kts | 86° |
| 2026-05-04 09:14 | 36.15231 | -5.34238 | 16 ft | 10 kts | 137° |
| 2026-05-04 09:15 | 36.15221 | -5.34232 | 16 ft | 0 kts | 155° |
| 2026-05-04 09:15 | 36.15220 | -5.34231 | 16 ft | 2 kts | 156° |
| 2026-05-04 09:15 | 36.15203 | -5.34227 | 18 ft | 3 kts | 173° |
| 2026-05-04 09:15 | 36.15162 | -5.34215 | 19 ft | 9 kts | 146° |
| 2026-05-04 09:17 | 36.15110 | -5.35355 | 29 ft | 136 kts | 267° |
| 2026-05-04 09:18 | 36.15061 | -5.36600 | 477 ft | 146 kts | 269° |
| 2026-05-04 09:18 | 36.14986 | -5.37856 | 1158 ft | 148 kts | 263° |
| 2026-05-04 09:18 | 36.14767 | -5.39128 | 1555 ft | 159 kts | 253° |
| 2026-05-04 09:18 | 36.14235 | -5.40421 | 1732 ft | 184 kts | 225° |
| 2026-05-04 09:19 | 36.12953 | -5.40990 | 1946 ft | 218 kts | 180° |
| 2026-05-04 09:19 | 36.11487 | -5.40250 | 2219 ft | 246 kts | 144° |
| 2026-05-04 09:19 | 36.10216 | -5.38679 | 2651 ft | 267 kts | 132° |
| 2026-05-04 09:19 | 36.09046 | -5.36848 | 3403 ft | 275 kts | 129° |
| 2026-05-04 09:20 | 36.07874 | -5.34956 | 4214 ft | 279 kts | 130° |
| 2026-05-04 09:20 | 36.06662 | -5.33067 | 5057 ft | 282 kts | 132° |
| 2026-05-04 09:20 | 36.05395 | -5.31189 | 5839 ft | 286 kts | 134° |
| 2026-05-04 09:20 | 36.04080 | -5.29314 | 6596 ft | 291 kts | 135° |
| 2026-05-04 09:21 | 36.02759 | -5.27400 | 7332 ft | 297 kts | 128° |
| 2026-05-04 09:21 | 36.01863 | -5.25070 | 8053 ft | 306 kts | 107° |
| 2026-05-04 09:21 | 36.01676 | -5.22432 | 8783 ft | 313 kts | 84° |
| 2026-05-04 09:21 | 36.02270 | -5.19838 | 9482 ft | 317 kts | 63° |
| 2026-05-04 09:22 | 36.03277 | -5.17435 | 10157 ft | 322 kts | 61° |
| 2026-05-04 09:22 | 36.04348 | -5.14910 | 10383 ft | 343 kts | 62° |
| 2026-05-04 09:22 | 36.05489 | -5.12209 | 10527 ft | 365 kts | 62° |
| 2026-05-04 09:22 | 36.06680 | -5.09386 | 10952 ft | 375 kts | 62° |
| 2026-05-04 09:23 | 36.07889 | -5.06507 | 11547 ft | 379 kts | 62° |
| 2026-05-04 09:23 | 36.09107 | -5.03593 | 12160 ft | 383 kts | 62° |
| 2026-05-04 09:23 | 36.10335 | -5.00649 | 12766 ft | 387 kts | 62° |
| 2026-05-04 09:23 | 36.11571 | -4.97676 | 13375 ft | 391 kts | 62° |
| 2026-05-04 09:25 | 36.25280 | -4.81354 | 16959 ft | 411 kts | 29° |
| 2026-05-04 09:25 | 36.27710 | -4.79446 | 17468 ft | 415 kts | 29° |
| 2026-05-04 09:26 | 36.30167 | -4.77516 | 17977 ft | 419 kts | 28° |
| 2026-05-04 09:26 | 36.32645 | -4.75570 | 18486 ft | 424 kts | 28° |
| 2026-05-04 09:26 | 36.35143 | -4.73606 | 18934 ft | 427 kts | 28° |
| 2026-05-04 09:26 | 36.37665 | -4.71623 | 19409 ft | 431 kts | 28° |
| 2026-05-04 09:27 | 36.40207 | -4.69624 | 19884 ft | 435 kts | 28° |
| 2026-05-04 09:27 | 36.42776 | -4.67601 | 20357 ft | 439 kts | 28° |
| 2026-05-04 09:27 | 36.45363 | -4.65565 | 20822 ft | 442 kts | 28° |
| 2026-05-04 09:27 | 36.47973 | -4.63511 | 21277 ft | 446 kts | 28° |
| 2026-05-04 09:28 | 36.50605 | -4.61436 | 21724 ft | 449 kts | 28° |
| 2026-05-04 09:28 | 36.53258 | -4.59341 | 22149 ft | 453 kts | 28° |
| 2026-05-04 09:28 | 36.55924 | -4.57233 | 22578 ft | 456 kts | 28° |
| 2026-05-04 09:28 | 36.58619 | -4.55098 | 23002 ft | 460 kts | 28° |
| 2026-05-04 09:29 | 36.61326 | -4.52954 | 23432 ft | 463 kts | 28° |
| 2026-05-04 09:29 | 36.64051 | -4.50792 | 23790 ft | 467 kts | 28° |
| 2026-05-04 09:29 | 36.66797 | -4.48610 | 24124 ft | 469 kts | 28° |
| 2026-05-04 09:29 | 36.69556 | -4.46416 | 24469 ft | 472 kts | 28° |
| 2026-05-04 09:30 | 36.72335 | -4.44208 | 24792 ft | 475 kts | 28° |
| 2026-05-04 09:30 | 36.75129 | -4.41988 | 25127 ft | 477 kts | 28° |
| 2026-05-04 09:30 | 36.77900 | -4.39783 | 25473 ft | 480 kts | 28° |
| 2026-05-04 09:30 | 36.80767 | -4.37531 | 25809 ft | 481 kts | 24° |
| 2026-05-04 09:31 | 36.83712 | -4.35705 | 26113 ft | 478 kts | 18° |
| 2026-05-04 09:31 | 36.86771 | -4.34041 | 26437 ft | 481 kts | 18° |
| 2026-05-04 09:31 | 36.89850 | -4.32366 | 26775 ft | 483 kts | 18° |
| 2026-05-04 09:31 | 36.92940 | -4.30681 | 27074 ft | 486 kts | 17° |
| 2026-05-04 09:32 | 36.96044 | -4.28983 | 27386 ft | 488 kts | 18° |
| 2026-05-04 09:32 | 36.99160 | -4.27272 | 27709 ft | 490 kts | 17° |
| 2026-05-04 09:34 | 37.21186 | -4.15130 | 30496 ft | 493 kts | 17° |
| 2026-05-04 09:34 | 37.24320 | -4.13398 | 30876 ft | 492 kts | 17° |
| 2026-05-04 09:34 | 37.27450 | -4.11670 | 31244 ft | 491 kts | 17° |
| 2026-05-04 09:34 | 37.30579 | -4.09943 | 31605 ft | 491 kts | 17° |
| 2026-05-04 09:35 | 37.33706 | -4.08215 | 31974 ft | 490 kts | 17° |
| 2026-05-04 09:35 | 37.36826 | -4.06490 | 32340 ft | 490 kts | 17° |
| 2026-05-04 09:35 | 37.39947 | -4.04762 | 32724 ft | 490 kts | 17° |
| 2026-05-04 09:35 | 37.43061 | -4.03032 | 33077 ft | 489 kts | 17° |
| 2026-05-04 09:37 | 37.64768 | -3.90916 | 35227 ft | 487 kts | 17° |
| 2026-05-04 09:37 | 37.67864 | -3.89186 | 35503 ft | 486 kts | 17° |
| 2026-05-04 09:38 | 37.70952 | -3.87458 | 35755 ft | 486 kts | 17° |
| 2026-05-04 09:38 | 37.74040 | -3.85728 | 35972 ft | 486 kts | 17° |
| 2026-05-04 09:38 | 37.80275 | -3.82242 | 36037 ft | 495 kts | 17° |
| 2026-05-04 09:39 | 37.86577 | -3.78697 | 36039 ft | 501 kts | 18° |
| 2026-05-04 09:39 | 37.92944 | -3.75096 | 36035 ft | 501 kts | 18° |
| 2026-05-04 09:40 | 37.99315 | -3.71495 | 36037 ft | 502 kts | 18° |
| 2026-05-04 09:40 | 38.05701 | -3.67896 | 36037 ft | 502 kts | 18° |
| 2026-05-04 09:42 | 38.32045 | -3.60866 | 36052 ft | 481 kts | 356° |
| 2026-05-04 09:43 | 38.38716 | -3.60207 | 36049 ft | 481 kts | 356° |
| 2026-05-04 09:43 | 38.45385 | -3.59553 | 36048 ft | 481 kts | 356° |
| 2026-05-04 09:44 | 38.52055 | -3.58906 | 36045 ft | 481 kts | 356° |
| 2026-05-04 09:46 | 38.78704 | -3.56312 | 36039 ft | 481 kts | 357° |
| 2026-05-04 09:46 | 38.85385 | -3.55656 | 36041 ft | 481 kts | 357° |
| 2026-05-04 09:47 | 38.92060 | -3.54999 | 36038 ft | 481 kts | 357° |
| 2026-05-04 09:49 | 39.18816 | -3.52345 | 36039 ft | 483 kts | 357° |
| 2026-05-04 09:51 | 39.41130 | -3.50116 | 36038 ft | 483 kts | 357° |
| 2026-05-04 09:51 | 39.48917 | -3.49329 | 36031 ft | 483 kts | 357° |
| 2026-05-04 09:52 | 39.54530 | -3.48771 | 36029 ft | 483 kts | 357° |
| 2026-05-04 09:52 | 39.61200 | -3.48110 | 36026 ft | 484 kts | 357° |
| 2026-05-04 09:53 | 39.67915 | -3.47428 | 36029 ft | 484 kts | 357° |
| 2026-05-04 09:53 | 39.74637 | -3.46743 | 36029 ft | 485 kts | 357° |
| 2026-05-04 09:54 | 39.81367 | -3.45940 | 36029 ft | 488 kts | 0° |
| 2026-05-04 09:54 | 39.88097 | -3.44607 | 36027 ft | 491 kts | 3° |
| 2026-05-04 09:55 | 39.94835 | -3.43076 | 36030 ft | 491 kts | 3° |
| 2026-05-04 09:55 | 40.01584 | -3.41648 | 36033 ft | 491 kts | 2° |
| 2026-05-04 09:56 | 40.08337 | -3.40316 | 36034 ft | 491 kts | 2° |
| 2026-05-04 09:56 | 40.15099 | -3.38984 | 36031 ft | 492 kts | 2° |
| 2026-05-04 09:57 | 40.21866 | -3.37625 | 36030 ft | 492 kts | 2° |
| 2026-05-04 09:57 | 40.28589 | -3.36264 | 36024 ft | 492 kts | 2° |
| 2026-05-04 09:58 | 40.35406 | -3.34879 | 36022 ft | 492 kts | 2° |
| 2026-05-04 09:58 | 40.42176 | -3.33509 | 36021 ft | 492 kts | 2° |
| 2026-05-04 10:00 | 40.69242 | -3.27979 | 36024 ft | 494 kts | 3° |
| 2026-05-04 10:04 | 41.16757 | -3.17633 | 36021 ft | 494 kts | 4° |
| 2026-05-04 10:04 | 41.22999 | -3.16236 | 36019 ft | 494 kts | 5° |
| 2026-05-04 10:05 | 41.24444 | -3.15909 | 36019 ft | 494 kts | 5° |
| 2026-05-04 10:05 | 41.29378 | -3.14788 | 36022 ft | 494 kts | 5° |
| 2026-05-04 10:06 | 41.36149 | -3.13248 | 36023 ft | 494 kts | 5° |
| 2026-05-04 10:06 | 41.42925 | -3.11717 | 36027 ft | 493 kts | 5° |
| 2026-05-04 10:08 | 41.66588 | -3.06345 | 36025 ft | 493 kts | 5° |
| 2026-05-04 10:08 | 41.73299 | -3.04801 | 36029 ft | 493 kts | 5° |
| 2026-05-04 10:09 | 41.80061 | -3.03252 | 36027 ft | 493 kts | 5° |
| 2026-05-04 10:09 | 41.86820 | -3.01702 | 36028 ft | 493 kts | 5° |
| 2026-05-04 10:10 | 41.93580 | -3.00143 | 36029 ft | 493 kts | 5° |
| 2026-05-04 10:10 | 42.00345 | -2.98579 | 36033 ft | 493 kts | 6° |
| 2026-05-04 10:11 | 42.07101 | -2.97006 | 36024 ft | 493 kts | 6° |
| 2026-05-04 10:11 | 42.13854 | -2.95432 | 36023 ft | 492 kts | 6° |
| 2026-05-04 10:12 | 42.20602 | -2.93860 | 36026 ft | 492 kts | 6° |
| 2026-05-04 10:12 | 42.27342 | -2.92284 | 36027 ft | 491 kts | 6° |
| 2026-05-04 10:13 | 42.34032 | -2.90718 | 36026 ft | 491 kts | 6° |
| 2026-05-04 10:13 | 42.40765 | -2.89145 | 36035 ft | 491 kts | 6° |
| 2026-05-04 10:14 | 42.47506 | -2.88215 | 36038 ft | 483 kts | 353° |
| 2026-05-04 10:16 | 42.74356 | -2.89929 | 36052 ft | 483 kts | 353° |
| 2026-05-04 10:16 | 42.81067 | -2.90369 | 36058 ft | 483 kts | 353° |
| 2026-05-04 10:17 | 42.87777 | -2.90806 | 36058 ft | 483 kts | 353° |
| 2026-05-04 10:19 | 43.14564 | -2.92548 | 36081 ft | 483 kts | 353° |
| 2026-05-04 10:19 | 43.21282 | -2.92990 | 36078 ft | 482 kts | 353° |
| 2026-05-04 10:20 | 43.27975 | -2.93424 | 36074 ft | 482 kts | 353° |
| 2026-05-04 10:20 | 43.34541 | -2.94736 | 36077 ft | 475 kts | 343° |
| 2026-05-04 10:21 | 43.41020 | -2.96587 | 36078 ft | 476 kts | 343° |
| 2026-05-04 10:21 | 43.47457 | -2.98422 | 36076 ft | 475 kts | 343° |
| 2026-05-04 10:22 | 43.57175 | -3.01196 | 36072 ft | 475 kts | 344° |
| 2026-05-04 10:23 | 43.63655 | -3.03054 | 36063 ft | 476 kts | 344° |
| 2026-05-04 10:25 | 43.89548 | -3.10500 | 36048 ft | 476 kts | 344° |
| 2026-05-04 10:25 | 43.96035 | -3.12377 | 36051 ft | 476 kts | 344° |
| 2026-05-04 10:26 | 44.02519 | -3.14256 | 36048 ft | 477 kts | 346° |
| 2026-05-04 10:26 | 44.09188 | -3.14618 | 36049 ft | 484 kts | 1° |
| 2026-05-04 10:27 | 44.15909 | -3.13903 | 36047 ft | 484 kts | 1° |
| 2026-05-04 10:27 | 44.22635 | -3.13216 | 36047 ft | 485 kts | 1° |
| 2026-05-04 10:28 | 44.29361 | -3.12526 | 36044 ft | 485 kts | 1° |
| 2026-05-04 10:28 | 44.36052 | -3.11830 | 36046 ft | 485 kts | 1° |
| 2026-05-04 10:29 | 44.42781 | -3.11134 | 36042 ft | 485 kts | 1° |
| 2026-05-04 10:29 | 44.49515 | -3.10441 | 36044 ft | 485 kts | 1° |
| 2026-05-04 10:30 | 44.56249 | -3.09740 | 36040 ft | 485 kts | 1° |
| 2026-05-04 10:30 | 44.62985 | -3.09031 | 36044 ft | 485 kts | 1° |
| 2026-05-04 10:31 | 44.69719 | -3.08317 | 36041 ft | 485 kts | 1° |
| 2026-05-04 10:32 | 44.93231 | -3.05823 | 36045 ft | 485 kts | 1° |
| 2026-05-04 10:33 | 44.99959 | -3.05107 | 36043 ft | 485 kts | 1° |
| 2026-05-04 10:33 | 45.06687 | -3.04402 | 36045 ft | 485 kts | 1° |
| 2026-05-04 10:34 | 45.13410 | -3.03687 | 36047 ft | 484 kts | 1° |
| 2026-05-04 10:34 | 45.20129 | -3.02961 | 36044 ft | 484 kts | 2° |
| 2026-05-04 10:35 | 45.26845 | -3.02237 | 36037 ft | 484 kts | 1° |
| 2026-05-04 10:35 | 45.33478 | -3.00532 | 36032 ft | 487 kts | 18° |
| 2026-05-04 10:36 | 45.39722 | -2.96761 | 36039 ft | 488 kts | 22° |
| 2026-05-04 10:36 | 45.45911 | -2.92902 | 36031 ft | 489 kts | 22° |
| 2026-05-04 10:37 | 45.52143 | -2.89020 | 36032 ft | 489 kts | 22° |
| 2026-05-04 10:37 | 45.58374 | -2.85112 | 36027 ft | 489 kts | 23° |
| 2026-05-04 10:39 | 45.80195 | -2.71355 | 36022 ft | 490 kts | 23° |
| 2026-05-04 10:40 | 45.86433 | -2.67391 | 36025 ft | 490 kts | 23° |
| 2026-05-04 10:40 | 45.92674 | -2.63422 | 36027 ft | 490 kts | 23° |
| 2026-05-04 10:41 | 45.98873 | -2.59471 | 36023 ft | 490 kts | 23° |
| 2026-05-04 10:41 | 46.05112 | -2.55494 | 36021 ft | 491 kts | 23° |
| 2026-05-04 10:42 | 46.11354 | -2.51503 | 36022 ft | 491 kts | 23° |
| 2026-05-04 10:42 | 46.17689 | -2.47913 | 36031 ft | 488 kts | 12° |
| 2026-05-04 10:43 | 46.24374 | -2.46480 | 36017 ft | 485 kts | 4° |
| 2026-05-04 10:45 | 46.51098 | -2.40901 | 36021 ft | 489 kts | 22° |
| 2026-05-04 10:45 | 46.57099 | -2.36233 | 36020 ft | 490 kts | 29° |
| 2026-05-04 10:46 | 46.62022 | -2.32159 | 36019 ft | 490 kts | 29° |
| 2026-05-04 10:46 | 46.67954 | -2.27251 | 36016 ft | 490 kts | 29° |
| 2026-05-04 10:47 | 46.73886 | -2.22336 | 36016 ft | 490 kts | 29° |
| 2026-05-04 10:47 | 46.79821 | -2.17401 | 36021 ft | 492 kts | 29° |
| 2026-05-04 10:49 | 47.04328 | -2.00522 | 36009 ft | 485 kts | 6° |
| 2026-05-04 10:50 | 47.10962 | -1.98974 | 36012 ft | 486 kts | 8° |
| 2026-05-04 10:52 | 47.37678 | -1.93165 | 36020 ft | 481 kts | 353° |
| 2026-05-04 10:52 | 47.44341 | -1.93888 | 36025 ft | 481 kts | 353° |
| 2026-05-04 10:54 | 47.67673 | -1.94206 | 36013 ft | 486 kts | 16° |
| 2026-05-04 10:54 | 47.70883 | -1.92601 | 36021 ft | 487 kts | 18° |
| 2026-05-04 10:56 | 47.96489 | -1.79554 | 36025 ft | 487 kts | 18° |
| 2026-05-04 10:57 | 48.02891 | -1.76251 | 36024 ft | 487 kts | 18° |
| 2026-05-04 10:57 | 48.09485 | -1.74239 | 36024 ft | 482 kts | 0° |
| 2026-05-04 10:58 | 48.16173 | -1.74281 | 36022 ft | 480 kts | 356° |
| 2026-05-04 10:58 | 48.22864 | -1.74370 | 36021 ft | 481 kts | 357° |
| 2026-05-04 10:59 | 48.29555 | -1.74439 | 36015 ft | 481 kts | 356° |
| 2026-05-04 10:59 | 48.36246 | -1.74519 | 36015 ft | 481 kts | 356° |
| 2026-05-04 11:00 | 48.42945 | -1.74596 | 36029 ft | 481 kts | 357° |
| 2026-05-04 11:02 | 48.69697 | -1.74938 | 36031 ft | 481 kts | 357° |
| 2026-05-04 11:05 | 49.19562 | -1.74079 | 36009 ft | 480 kts | 359° |
| 2026-05-04 11:06 | 49.26237 | -1.73839 | 36008 ft | 480 kts | 359° |
| 2026-05-04 11:06 | 49.32917 | -1.73595 | 36009 ft | 480 kts | 359° |
| 2026-05-04 11:10 | 49.79707 | -1.70847 | 35010 ft | 481 kts | 1° |
| 2026-05-04 11:12 | 50.03018 | -1.67696 | 31480 ft | 475 kts | 17° |
| 2026-05-04 11:12 | 50.06163 | -1.66172 | 30931 ft | 472 kts | 17° |
| 2026-05-04 11:12 | 50.09290 | -1.64659 | 30376 ft | 469 kts | 17° |
| 2026-05-04 11:12 | 50.12400 | -1.63150 | 29787 ft | 467 kts | 17° |
| 2026-05-04 11:13 | 50.15486 | -1.61650 | 29228 ft | 462 kts | 17° |
| 2026-05-04 11:13 | 50.18537 | -1.60164 | 28696 ft | 457 kts | 17° |
| 2026-05-04 11:13 | 50.21554 | -1.58690 | 28166 ft | 453 kts | 17° |
| 2026-05-04 11:13 | 50.24507 | -1.57249 | 27648 ft | 449 kts | 17° |
| 2026-05-04 11:14 | 50.26516 | -1.56271 | 27304 ft | 446 kts | 17° |
| 2026-05-04 11:14 | 50.33138 | -1.53048 | 26178 ft | 437 kts | 17° |
| 2026-05-04 11:16 | 50.52977 | -1.43235 | 22924 ft | 418 kts | 20° |
| 2026-05-04 11:16 | 50.55604 | -1.41325 | 22460 ft | 415 kts | 29° |
| 2026-05-04 11:16 | 50.58134 | -1.39154 | 21991 ft | 413 kts | 29° |
| 2026-05-04 11:17 | 50.60645 | -1.36994 | 21504 ft | 411 kts | 29° |
| 2026-05-04 11:17 | 50.63149 | -1.34843 | 21023 ft | 409 kts | 29° |
| 2026-05-04 11:19 | 50.79938 | -1.20006 | 17566 ft | 359 kts | 33° |
| 2026-05-04 11:19 | 50.81986 | -1.17866 | 17125 ft | 346 kts | 34° |
| 2026-05-04 11:19 | 50.83950 | -1.15772 | 16701 ft | 335 kts | 34° |
| 2026-05-04 11:19 | 50.85881 | -1.13712 | 16270 ft | 335 kts | 34° |
| 2026-05-04 11:20 | 50.87813 | -1.11666 | 15844 ft | 333 kts | 34° |
| 2026-05-04 11:20 | 50.89726 | -1.09659 | 15418 ft | 335 kts | 34° |
| 2026-05-04 11:20 | 50.91674 | -1.07634 | 14991 ft | 335 kts | 33° |
| 2026-05-04 11:20 | 50.93628 | -1.05609 | 14564 ft | 336 kts | 33° |
| 2026-05-04 11:22 | 51.05942 | -0.88823 | 11726 ft | 333 kts | 49° |
| 2026-05-04 11:22 | 51.07486 | -0.86088 | 11357 ft | 332 kts | 49° |
| 2026-05-04 11:23 | 51.09026 | -0.83354 | 10991 ft | 330 kts | 49° |
| 2026-05-04 11:23 | 51.10551 | -0.80640 | 10637 ft | 328 kts | 49° |
| 2026-05-04 11:24 | 51.19037 | -0.65421 | 9161 ft | 298 kts | 49° |
| 2026-05-04 11:25 | 51.20407 | -0.62961 | 8850 ft | 296 kts | 49° |
| 2026-05-04 11:25 | 51.21776 | -0.60500 | 8539 ft | 297 kts | 49° |
| 2026-05-04 11:25 | 51.23146 | -0.58033 | 8234 ft | 297 kts | 49° |
| 2026-05-04 11:26 | 51.25867 | -0.53122 | 7598 ft | 294 kts | 49° |
| 2026-05-04 11:27 | 51.32055 | -0.35320 | 7019 ft | 254 kts | 76° |
| 2026-05-04 11:28 | 51.32509 | -0.32594 | 7027 ft | 254 kts | 76° |
| 2026-05-04 11:28 | 51.32963 | -0.29865 | 7023 ft | 254 kts | 76° |
| 2026-05-04 11:28 | 51.33414 | -0.27141 | 7024 ft | 254 kts | 76° |
| 2026-05-04 11:28 | 51.33872 | -0.24395 | 6842 ft | 258 kts | 76° |
| 2026-05-04 11:29 | 51.34336 | -0.21637 | 6565 ft | 254 kts | 76° |
| 2026-05-04 11:29 | 51.34792 | -0.18929 | 6299 ft | 252 kts | 76° |
| 2026-05-04 11:29 | 51.35247 | -0.16245 | 6027 ft | 249 kts | 76° |
| 2026-05-04 11:29 | 51.35715 | -0.13583 | 5723 ft | 247 kts | 70° |
| 2026-05-04 11:31 | 51.46369 | -0.10935 | 3790 ft | 229 kts | 334° |
| 2026-05-04 11:33 | 51.47799 | -0.26287 | 2207 ft | 180 kts | 270° |
| 2026-05-04 11:33 | 51.47796 | -0.28246 | 1995 ft | 170 kts | 271° |
| 2026-05-04 11:33 | 51.47793 | -0.30073 | 1790 ft | 159 kts | 271° |
| 2026-05-04 11:34 | 51.47790 | -0.31792 | 1593 ft | 151 kts | 271° |
| 2026-05-04 11:34 | 51.47788 | -0.33453 | 1381 ft | 149 kts | 271° |
| 2026-05-04 11:34 | 51.47785 | -0.35102 | 1173 ft | 148 kts | 271° |
| 2026-05-04 11:34 | 51.47781 | -0.36749 | 971 ft | 147 kts | 272° |
| 2026-05-04 11:35 | 51.47778 | -0.38380 | 762 ft | 146 kts | 271° |
| 2026-05-04 11:35 | 51.47775 | -0.40000 | 557 ft | 145 kts | 271° |
| 2026-05-04 11:35 | 51.47769 | -0.41619 | 366 ft | 145 kts | 271° |
| 2026-05-04 11:35 | 51.47761 | -0.43228 | 146 ft | 145 kts | 272° |
| 2026-05-04 11:36 | 51.47763 | -0.44754 | 93 ft | 121 kts | 270° |
| 2026-05-04 11:36 | 51.47759 | -0.45824 | 85 ft | 73 kts | 269° |
| 2026-05-04 11:36 | 51.47755 | -0.46398 | 94 ft | 39 kts | 265° |
| 2026-05-04 11:36 | 51.47703 | -0.46713 | 93 ft | 23 kts | 245° |
| 2026-05-04 11:37 | 51.47642 | -0.46863 | 92 ft | 12 kts | 214° |
| 2026-05-04 11:37 | 51.47578 | -0.46915 | 92 ft | 9 kts | 202° |
| 2026-05-04 11:37 | 51.47497 | -0.46974 | 93 ft | 14 kts | 236° |
| 2026-05-04 11:37 | 51.47493 | -0.47129 | 89 ft | 15 kts | 270° |
| 2026-05-04 11:38 | 51.47492 | -0.47320 | 86 ft | 19 kts | 270° |
| 2026-05-04 11:38 | 51.47491 | -0.47538 | 89 ft | 20 kts | 269° |
| 2026-05-04 11:38 | 51.47489 | -0.47767 | 87 ft | 20 kts | 270° |
| 2026-05-04 11:38 | 51.47427 | -0.47878 | 89 ft | 15 kts | 180° |
| 2026-05-04 11:39 | 51.47320 | -0.47873 | 90 ft | 16 kts | 180° |
| 2026-05-04 11:39 | 51.47221 | -0.47874 | 89 ft | 15 kts | 185° |
| 2026-05-04 11:40 | 51.47195 | -0.48013 | 92 ft | 0 kts | 270° |